createdAt,value
2023-04-18T00:00:18.543Z,100256.69
2023-04-18T00:02:47.504Z,100259.94
2023-04-18T00:05:18.272Z,100249.53
2023-04-18T00:07:45.731Z,100245.91
2023-04-18T00:10:13.701Z,100255.88
2023-04-18T00:12:43.132Z,100246.84
2023-04-18T00:15:12.463Z,100238.53
2023-04-18T00:17:40.400Z,100242.28
2023-04-18T00:20:13.582Z,100243.38
2023-04-18T00:22:42.981Z,100244.44
2023-04-18T00:25:11.374Z,100243.91
2023-04-18T00:27:39.474Z,100242.69
2023-04-18T00:30:08.288Z,100245.25
2023-04-18T00:32:38.804Z,100247.41
2023-04-18T00:35:06.881Z,100250.78
2023-04-18T00:37:35.921Z,100240.41
2023-04-18T00:40:05.676Z,100232.03
2023-04-18T00:42:33.598Z,100250.25
2023-04-18T00:45:01.234Z,100239.59
2023-04-18T00:47:28.741Z,100246.47
2023-04-18T00:49:57.221Z,100242.28
2023-04-18T00:52:27.335Z,100238.28
2023-04-18T00:54:56.284Z,100244.31
2023-04-18T00:57:24.594Z,100250.91
2023-04-18T00:59:52.257Z,100247.69
2023-04-18T01:02:20.351Z,100251.47
2023-04-18T01:04:47.702Z,100244.22
2023-04-18T01:07:15.333Z,100246.91
2023-04-18T01:09:42.885Z,100255.38
2023-04-18T01:12:11.625Z,100249.59
2023-04-18T01:14:41.759Z,100241.25
2023-04-18T01:17:10.756Z,100238.00
2023-04-18T01:19:38.238Z,100235.56
2023-04-18T01:22:08.743Z,100242.84
2023-04-18T01:24:37.719Z,100244.47
2023-04-18T01:27:06.002Z,100234.22
2023-04-18T01:29:34.489Z,100235.03
2023-04-18T01:32:02.754Z,100230.72
2023-04-18T01:34:30.310Z,100230.59
2023-04-18T01:36:57.901Z,100232.88
2023-04-18T01:39:25.326Z,100231.53
2023-04-18T01:41:54.813Z,100227.75
2023-04-18T01:44:22.041Z,100227.75
2023-04-18T01:46:49.437Z,100233.38
2023-04-18T01:49:16.900Z,100234.50
2023-04-18T01:51:44.410Z,100242.97
2023-04-18T01:54:12.207Z,100244.03
2023-04-18T01:56:39.735Z,100239.72
2023-04-18T01:59:08.658Z,100235.56
2023-04-18T02:01:36.173Z,100228.69
2023-04-18T02:04:03.835Z,100230.44
2023-04-18T02:06:31.451Z,100235.72
2023-04-18T02:09:00.605Z,100230.72
2023-04-18T02:11:27.891Z,100233.41
2023-04-18T02:13:55.797Z,100235.44
2023-04-18T02:16:24.808Z,100228.03
2023-04-18T02:18:52.642Z,100228.03
2023-04-18T02:21:20.059Z,100218.88
2023-04-18T02:23:49.506Z,100221.31
2023-04-18T02:26:16.855Z,100221.72
2023-04-18T02:28:44.118Z,100223.75
2023-04-18T02:31:14.894Z,100220.50
2023-04-18T02:33:45.827Z,100219.41
2023-04-18T02:36:14.051Z,100221.03
2023-04-18T02:38:43.624Z,100222.66
2023-04-18T02:41:15.349Z,100208.91
2023-04-18T02:43:43.215Z,100226.84
2023-04-18T02:46:11.200Z,100221.31
2023-04-18T02:48:38.686Z,100221.03
2023-04-18T02:51:09.226Z,100219.28
2023-04-18T02:53:38.486Z,100217.94
2023-04-18T02:56:07.007Z,100224.00
2023-04-18T02:58:54.427Z,100221.16
2023-04-18T03:01:47.919Z,100224.00
2023-04-18T03:04:18.725Z,100221.03
2023-04-18T03:06:58.073Z,100215.66
2023-04-18T03:09:27.176Z,100204.06
2023-04-18T03:11:59.624Z,100218.63
2023-04-18T03:14:30.012Z,100216.72
2023-04-18T03:16:57.380Z,100217.13
2023-04-18T03:19:29.304Z,100215.66
2023-04-18T03:22:01.172Z,100218.84
2023-04-18T03:24:28.542Z,100215.34
2023-04-18T03:27:00.685Z,100210.25
2023-04-18T03:29:28.825Z,100212.94
2023-04-18T03:31:56.465Z,100215.34
2023-04-18T03:34:24.178Z,100219.41
2023-04-18T03:36:52.795Z,100224.25
2023-04-18T03:39:21.523Z,100218.31
2023-04-18T03:41:49.922Z,100218.72
2023-04-18T03:44:18.035Z,100211.44
2023-04-18T03:46:46.385Z,100210.88
2023-04-18T03:49:13.883Z,100220.03
2023-04-18T03:51:47.977Z,100230.66
2023-04-18T03:54:15.984Z,100225.69
2023-04-18T03:56:45.506Z,100232.28
2023-04-18T03:59:14.168Z,100224.47
2023-04-18T04:01:44.613Z,100224.31
2023-04-18T04:04:14.204Z,100225.81
2023-04-18T04:06:44.297Z,100229.03
2023-04-18T04:09:22.592Z,100226.31
2023-04-18T04:11:51.907Z,100226.84
2023-04-18T04:14:19.733Z,100225.25
2023-04-18T04:16:47.195Z,100228.63
2023-04-18T04:19:17.210Z,100215.66
2023-04-18T04:21:53.546Z,100229.78
2023-04-18T04:24:22.815Z,100229.53
2023-04-18T04:26:53.373Z,100224.13
2023-04-18T04:29:24.709Z,100227.88
2023-04-18T04:31:53.659Z,100228.56
2023-04-18T04:34:34.520Z,100222.19
2023-04-18T04:37:05.026Z,100223.66
2023-04-18T04:39:37.820Z,100226.59
2023-04-18T04:42:28.709Z,100234.97
2023-04-18T04:45:12.621Z,100236.31
2023-04-18T04:47:40.195Z,100231.84
2023-04-18T04:50:14.777Z,100232.88
2023-04-18T04:52:42.680Z,100226.38
2023-04-18T04:55:10.960Z,100228.50
2023-04-18T04:57:39.668Z,100229.84
2023-04-18T05:00:24.478Z,100230.50
2023-04-18T05:02:56.497Z,100234.25
2023-04-18T05:05:25.753Z,100231.97
2023-04-18T05:07:53.285Z,100229.91
2023-04-18T05:10:21.804Z,100233.00
2023-04-18T05:12:50.592Z,100230.50
2023-04-18T05:15:18.675Z,100230.22
2023-04-18T05:17:46.416Z,100238.44
2023-04-18T05:20:13.951Z,100237.63
2023-04-18T05:22:41.432Z,100240.69
2023-04-18T05:25:09.430Z,100249.22
2023-04-18T05:27:36.774Z,100234.25
2023-04-18T05:30:06.983Z,100251.78
2023-04-18T05:32:34.623Z,100241.81
2023-04-18T05:35:02.151Z,100245.63
2023-04-18T05:37:30.674Z,100254.41
2023-04-18T05:39:59.918Z,100238.13
2023-04-18T05:42:28.293Z,100252.28
2023-04-18T05:44:55.794Z,100249.44
2023-04-18T05:47:27.056Z,100244.50
2023-04-18T05:49:55.152Z,100240.06
2023-04-18T05:52:23.002Z,100241.81
2023-04-18T05:54:51.013Z,100245.19
2023-04-18T05:57:18.502Z,100246.00
2023-04-18T05:59:45.941Z,100246.38
2023-04-18T06:02:13.759Z,100243.63
2023-04-18T06:04:43.562Z,100248.34
2023-04-18T06:07:11.837Z,100236.53
2023-04-18T06:09:39.138Z,100238.97
2023-04-18T06:12:06.600Z,100241.38
2023-04-18T06:14:34.166Z,100238.81
2023-04-18T06:17:01.391Z,100244.59
2023-04-18T06:19:28.970Z,100244.03
2023-04-18T06:21:57.681Z,100247.59
2023-04-18T06:24:25.067Z,100244.94
2023-04-18T06:26:52.558Z,100239.09
2023-04-18T06:29:19.942Z,100253.53
2023-04-18T06:31:48.464Z,100254.69
2023-04-18T06:34:16.632Z,100251.09
2023-04-18T06:36:44.195Z,100254.16
2023-04-18T06:39:13.221Z,100243.34
2023-04-18T06:41:40.601Z,100246.47
2023-04-18T06:44:08.108Z,100244.69
2023-04-18T06:46:35.912Z,100241.97
2023-04-18T06:49:03.966Z,100246.97
2023-04-18T06:51:31.797Z,100235.50
2023-04-18T06:53:59.100Z,100230.63
2023-04-18T06:56:27.979Z,100236.06
2023-04-18T06:58:55.557Z,100233.88
2023-04-18T07:01:22.926Z,100240.50
2023-04-18T07:03:50.395Z,100236.59
2023-04-18T07:06:18.857Z,100234.53
2023-04-18T07:08:46.470Z,100239.19
2023-04-18T07:11:13.822Z,100240.63
2023-04-18T07:13:43.263Z,100233.66
2023-04-18T07:16:10.715Z,100237.16
2023-04-18T07:18:38.728Z,100239.47
2023-04-18T07:21:09.271Z,100241.72
2023-04-18T07:23:37.152Z,100231.91
2023-04-18T07:26:05.930Z,100233.84
2023-04-18T07:28:33.609Z,100230.66
2023-04-18T07:31:03.872Z,100239.03
2023-04-18T07:33:33.899Z,100241.31
2023-04-18T07:36:02.029Z,100246.47
2023-04-18T07:38:29.515Z,100242.25
2023-04-18T07:40:57.792Z,100235.84
2023-04-18T07:43:25.175Z,100224.69
2023-04-18T07:45:53.204Z,100233.59
2023-04-18T07:48:22.829Z,100227.38
2023-04-18T07:50:50.354Z,100232.59
2023-04-18T07:53:17.985Z,100237.25
2023-04-18T07:55:45.798Z,100232.19
2023-04-18T07:58:13.712Z,100226.88
2023-04-18T08:00:42.839Z,100223.00
2023-04-18T08:03:12.380Z,100230.13
2023-04-18T08:05:43.108Z,100218.97
2023-04-18T08:08:12.127Z,100212.78
2023-04-18T08:10:39.697Z,100222.91
2023-04-18T08:13:08.202Z,100222.44
2023-04-18T08:15:35.956Z,100214.16
2023-04-18T08:18:03.415Z,100215.75
2023-04-18T08:20:31.113Z,100215.34
2023-04-18T08:23:05.618Z,100206.25
2023-04-18T08:25:36.630Z,100209.00
2023-04-18T08:28:04.573Z,100211.41
2023-04-18T08:30:32.015Z,100205.41
2023-04-18T08:32:59.781Z,100212.84
2023-04-18T08:35:27.418Z,100212.78
2023-04-18T08:37:54.990Z,100209.44
2023-04-18T08:40:24.255Z,100215.09
2023-04-18T08:42:53.634Z,100212.88
2023-04-18T08:45:21.371Z,100210.50
2023-04-18T08:47:48.864Z,100210.38
2023-04-18T08:50:17.462Z,100208.75
2023-04-18T08:52:48.242Z,100213.91
2023-04-18T08:55:16.502Z,100207.88
2023-04-18T08:57:45.490Z,100202.44
2023-04-18T09:00:14.094Z,100201.63
2023-04-18T09:02:47.293Z,100199.94
2023-04-18T09:05:16.640Z,100191.28
2023-04-18T09:07:44.277Z,100195.13
2023-04-18T09:10:12.793Z,100191.56
2023-04-18T09:12:52.474Z,100193.25
2023-04-18T09:15:23.460Z,100203.22
2023-04-18T09:17:56.489Z,100195.75
2023-04-18T09:20:30.869Z,100198.06
2023-04-18T09:23:00.896Z,100195.19
2023-04-18T09:25:29.973Z,100192.13
2023-04-18T09:28:01.068Z,100195.81
2023-04-18T09:30:34.423Z,100197.19
2023-04-18T09:33:06.386Z,100202.81
2023-04-18T09:35:38.082Z,100199.94
2023-04-18T09:38:06.473Z,100197.97
2023-04-18T09:40:34.022Z,100195.69
2023-04-18T09:43:18.366Z,100197.28
2023-04-18T09:45:46.977Z,100192.28
2023-04-18T09:48:14.402Z,100202.09
2023-04-18T09:50:42.661Z,100201.66
2023-04-18T09:53:12.065Z,100202.81
2023-04-18T09:55:40.400Z,100197.97
2023-04-18T09:58:10.678Z,100202.97
2023-04-18T10:00:40.135Z,100203.94
2023-04-18T10:03:09.913Z,100209.28
2023-04-18T10:05:41.905Z,100206.06
2023-04-18T10:08:10.570Z,100199.13
2023-04-18T10:10:39.059Z,100203.66
2023-04-18T10:13:11.294Z,100183.88
2023-04-18T10:15:51.686Z,100203.13
2023-04-18T10:18:23.775Z,100208.66
2023-04-18T10:21:00.615Z,100210.06
2023-04-18T10:23:36.293Z,100211.06
2023-04-18T10:26:04.766Z,100205.13
2023-04-18T10:28:53.879Z,100207.41
2023-04-18T10:31:22.571Z,100211.13
2023-04-18T10:34:04.001Z,100212.25
2023-04-18T10:36:32.661Z,100208.91
2023-04-18T10:39:03.160Z,100209.41
2023-04-18T10:41:32.530Z,100201.53
2023-04-18T10:44:22.430Z,100209.69
2023-04-18T10:47:18.629Z,100208.69
2023-04-18T10:49:57.932Z,100209.22
2023-04-18T10:52:25.808Z,100208.06
2023-04-18T10:54:59.236Z,100210.94
2023-04-18T10:57:37.986Z,100204.81
2023-04-18T11:00:09.436Z,100208.66
2023-04-18T11:02:37.346Z,100208.28
2023-04-18T11:05:06.969Z,100208.44
2023-04-18T11:07:35.781Z,100202.91
2023-04-18T11:10:04.077Z,100207.84
2023-04-18T11:12:34.558Z,100203.63
2023-04-18T11:15:04.348Z,100217.03
2023-04-18T11:17:34.908Z,100212.34
2023-04-18T11:20:06.871Z,100206.03
2023-04-18T11:22:43.299Z,100213.38
2023-04-18T11:25:11.119Z,100216.75
2023-04-18T11:27:41.746Z,100205.16
2023-04-18T11:30:10.220Z,100205.53
2023-04-18T11:32:39.368Z,100202.53
2023-04-18T11:35:08.949Z,100201.44
2023-04-18T11:37:36.415Z,100195.88
2023-04-18T11:40:04.360Z,100209.16
2023-04-18T11:42:34.882Z,100204.97
2023-04-18T11:45:03.240Z,100204.97
2023-04-18T11:47:35.143Z,100202.09
2023-04-18T11:50:05.881Z,100199.88
2023-04-18T11:52:34.704Z,100184.09
2023-04-18T11:55:13.551Z,100202.09
2023-04-18T11:57:42.210Z,100189.09
2023-04-18T12:00:12.634Z,100200.13
2023-04-18T12:02:42.799Z,100203.56
2023-04-18T12:05:14.913Z,100194.22
2023-04-18T12:07:44.747Z,100191.66
2023-04-18T12:10:24.988Z,100191.00
2023-04-18T12:12:54.453Z,100181.59
2023-04-18T12:15:28.281Z,100176.84
2023-04-18T12:18:00.706Z,100194.22
2023-04-18T12:20:36.670Z,100184.56
2023-04-18T12:23:04.490Z,100191.53
2023-04-18T12:25:32.974Z,100182.59
2023-04-18T12:28:02.022Z,100170.19
2023-04-18T12:30:31.067Z,100180.59
2023-04-18T12:33:00.149Z,100175.72
2023-04-18T12:35:28.592Z,100172.97
2023-04-18T12:37:59.994Z,100173.78
2023-04-18T12:40:30.225Z,100169.13
2023-04-18T12:42:57.625Z,100166.72
2023-04-18T12:45:25.466Z,100166.88
2023-04-18T12:47:53.746Z,100171.72
2023-04-18T12:50:23.233Z,100166.88
2023-04-18T12:52:52.048Z,100163.09
2023-04-18T12:55:22.771Z,100163.50
2023-04-18T12:57:51.812Z,100166.50
2023-04-18T13:00:19.310Z,100169.19
2023-04-18T13:02:46.864Z,100160.25
2023-04-18T13:05:16.450Z,100153.50
2023-04-18T13:07:46.365Z,100157.59
2023-04-18T13:10:15.028Z,100156.06
2023-04-18T13:12:44.011Z,100154.38
2023-04-18T13:15:12.184Z,100160.47
2023-04-18T13:17:40.151Z,100160.22
2023-04-18T13:20:10.788Z,100160.81
2023-04-18T13:22:38.601Z,100165.06
2023-04-18T13:25:17.071Z,100169.47
2023-04-18T13:27:46.848Z,100165.31
2023-04-18T13:30:14.457Z,100174.25
2023-04-18T13:32:44.027Z,100171.41
2023-04-18T13:35:11.809Z,100164.66
2023-04-18T13:37:39.786Z,100163.31
2023-04-18T13:40:08.373Z,100163.72
2023-04-18T13:42:37.388Z,100158.97
2023-04-18T13:45:10.344Z,100161.22
2023-04-18T13:47:39.580Z,100158.00
2023-04-18T13:50:08.388Z,100159.66
2023-04-18T13:52:36.419Z,100157.84
2023-04-18T13:55:04.151Z,100154.81
2023-04-18T13:57:34.132Z,100155.78
2023-04-18T14:00:13.966Z,100150.31
2023-04-18T14:02:42.680Z,100156.22
2023-04-18T14:05:10.753Z,100157.72
2023-04-18T14:07:38.845Z,100156.09
2023-04-18T14:10:07.555Z,100154.03
2023-04-18T14:12:35.120Z,100154.69
2023-04-18T14:15:02.592Z,100151.13
2023-04-18T14:17:34.150Z,100156.16
2023-04-18T14:20:02.456Z,100155.19
2023-04-18T14:22:31.270Z,100151.63
2023-04-18T14:24:58.991Z,100146.47
2023-04-18T14:27:26.659Z,100149.97
2023-04-18T14:29:54.540Z,100149.94
2023-04-18T14:32:21.741Z,100146.34
2023-04-18T14:34:50.516Z,100155.25
2023-04-18T14:37:17.878Z,100151.75
2023-04-18T14:39:45.305Z,100153.34
2023-04-18T14:42:12.756Z,100153.50
2023-04-18T14:44:40.575Z,100146.13
2023-04-18T14:47:08.007Z,100152.91
2023-04-18T14:49:35.520Z,100149.16
2023-04-18T14:52:04.976Z,100151.44
2023-04-18T14:54:33.130Z,100153.56
2023-04-18T14:57:03.523Z,100158.56
2023-04-18T14:59:30.994Z,100155.38
2023-04-18T15:01:59.728Z,100162.81
2023-04-18T15:04:28.930Z,100158.16
2023-04-18T15:06:56.542Z,100155.78
2023-04-18T15:09:25.275Z,100162.72
2023-04-18T15:11:52.680Z,100154.50
2023-04-18T15:14:19.989Z,100155.66
2023-04-18T15:16:49.599Z,100153.25
2023-04-18T15:19:17.164Z,100156.63
2023-04-18T15:21:45.068Z,100155.19
2023-04-18T15:24:12.676Z,100159.88
2023-04-18T15:26:42.607Z,100161.81
2023-04-18T15:29:10.063Z,100159.56
2023-04-18T15:31:39.056Z,100151.72
2023-04-18T15:34:07.344Z,100149.63
2023-04-18T15:36:36.139Z,100161.25
2023-04-18T15:39:05.784Z,100163.19
2023-04-18T15:41:35.486Z,100151.91
2023-04-18T15:44:06.077Z,100163.34
2023-04-18T15:46:35.508Z,100161.56
2023-04-18T15:49:02.890Z,100173.66
2023-04-18T15:51:30.477Z,100157.25
2023-04-18T15:53:58.002Z,100168.38
2023-04-18T15:56:26.923Z,100162.91
2023-04-18T15:58:56.727Z,100160.63
2023-04-18T16:01:26.929Z,100164.19
2023-04-18T16:03:54.681Z,100162.91
2023-04-18T16:06:23.593Z,100162.44
2023-04-18T16:08:51.160Z,100161.78
2023-04-18T16:11:20.751Z,100166.47
2023-04-18T16:13:48.586Z,100168.41
2023-04-18T16:16:18.641Z,100167.13
2023-04-18T16:18:47.678Z,100168.09
2023-04-18T16:21:15.949Z,100166.66
2023-04-18T16:23:47.666Z,100179.34
2023-04-18T16:26:17.338Z,100173.25
2023-04-18T16:28:47.245Z,100180.00
2023-04-18T16:31:15.494Z,100181.75
2023-04-18T16:33:45.533Z,100179.66
2023-04-18T16:36:39.558Z,100180.16
2023-04-18T16:39:08.707Z,100172.28
2023-04-18T16:41:36.077Z,100178.69
2023-04-18T16:44:07.975Z,100179.34
2023-04-18T16:46:37.524Z,100189.66
2023-04-18T16:49:04.959Z,100181.44
2023-04-18T16:51:41.249Z,100191.91
2023-04-18T16:54:22.568Z,100184.47
2023-04-18T16:57:19.444Z,100198.00
2023-04-18T16:59:49.888Z,100197.06
2023-04-18T17:02:44.644Z,100200.25
2023-04-18T17:05:19.378Z,100203.78
2023-04-18T17:07:49.934Z,100205.72
2023-04-18T17:10:18.100Z,100205.25
2023-04-18T17:12:49.197Z,100206.50
2023-04-18T17:15:20.974Z,100205.69
2023-04-18T17:17:48.571Z,100205.53
2023-04-18T17:20:19.592Z,100206.34
2023-04-18T17:22:51.438Z,100204.91
2023-04-18T17:25:21.208Z,100216.31
2023-04-18T17:27:49.477Z,100209.56
2023-04-18T17:30:17.247Z,100217.59
2023-04-18T17:32:46.329Z,100209.53
2023-04-18T17:35:17.699Z,100213.41
2023-04-18T17:37:47.361Z,100217.41
2023-04-18T17:40:17.279Z,100217.41
2023-04-18T17:42:47.698Z,100224.47
2023-04-18T17:45:26.518Z,100214.50
2023-04-18T17:47:54.940Z,100219.78
2023-04-18T17:50:23.728Z,100222.50
2023-04-18T17:52:55.163Z,100216.41
2023-04-18T17:55:24.375Z,100223.97
2023-04-18T17:57:51.687Z,100221.72
2023-04-18T18:00:22.067Z,100217.06
2023-04-18T18:02:53.088Z,100212.44
2023-04-18T18:05:23.383Z,100213.53
2023-04-18T18:07:54.771Z,100214.03
2023-04-18T18:10:24.666Z,100217.22
2023-04-18T18:12:52.311Z,100221.06
2023-04-18T18:15:20.368Z,100214.78
2023-04-18T18:17:48.939Z,100213.63
2023-04-18T18:20:17.244Z,100210.41
2023-04-18T18:22:45.009Z,100208.13
2023-04-18T18:25:13.023Z,100209.72
2023-04-18T18:27:42.088Z,100208.13
2023-04-18T18:30:09.833Z,100215.16
2023-04-18T18:32:37.288Z,100215.47
2023-04-18T18:35:06.249Z,100221.72
2023-04-18T18:37:33.687Z,100213.38
2023-04-18T18:40:05.108Z,100221.69
2023-04-18T18:42:35.743Z,100217.50
2023-04-18T18:45:06.464Z,100212.38
2023-04-18T18:47:39.682Z,100220.25
2023-04-18T18:50:08.081Z,100213.13
2023-04-18T18:52:37.363Z,100213.56
2023-04-18T18:55:14.209Z,100219.19
2023-04-18T18:57:41.537Z,100216.91
2023-04-18T19:00:11.654Z,100214.28
2023-04-18T19:02:39.767Z,100216.50
2023-04-18T19:05:07.828Z,100214.06
2023-04-18T19:07:35.127Z,100208.13
2023-04-18T19:10:03.529Z,100206.81
2023-04-18T19:12:34.393Z,100206.47
2023-04-18T19:15:02.346Z,100203.25
2023-04-18T19:17:36.986Z,100199.69
2023-04-18T19:20:05.053Z,100201.88
2023-04-18T19:22:33.574Z,100209.91
2023-04-18T19:25:01.325Z,100203.47
2023-04-18T19:27:32.456Z,100192.03
2023-04-18T19:29:59.911Z,100199.72
2023-04-18T19:32:27.378Z,100205.34
2023-04-18T19:34:56.122Z,100204.22
2023-04-18T19:37:23.619Z,100208.59
2023-04-18T19:39:51.012Z,100211.44
2023-04-18T19:42:18.602Z,100209.00
2023-04-18T19:44:46.183Z,100209.19
2023-04-18T19:47:13.623Z,100218.78
2023-04-18T19:49:40.983Z,100208.00
2023-04-18T19:52:09.744Z,100204.28
2023-04-18T19:54:37.308Z,100202.97
2023-04-18T19:57:06.422Z,100210.16
2023-04-18T19:59:33.946Z,100213.81
2023-04-18T20:02:04.351Z,100213.31
2023-04-18T20:04:34.378Z,100223.56
2023-04-18T20:07:02.268Z,100217.94
2023-04-18T20:09:33.671Z,100220.13
2023-04-18T20:12:02.165Z,100217.84
2023-04-18T20:14:29.903Z,100210.44
2023-04-18T20:16:57.554Z,100221.28
2023-04-18T20:19:25.875Z,100223.47
2023-04-18T20:21:53.234Z,100222.16
2023-04-18T20:24:21.345Z,100218.94
2023-04-18T20:26:51.481Z,100210.03
2023-04-18T20:29:18.724Z,100212.78
2023-04-18T20:31:46.318Z,100214.16
2023-04-18T20:34:13.703Z,100208.50
2023-04-18T20:36:41.679Z,100216.03
2023-04-18T20:39:09.556Z,100214.84
2023-04-18T20:41:37.188Z,100215.81
2023-04-18T20:44:06.093Z,100211.88
2023-04-18T20:46:33.487Z,100209.63
2023-04-18T20:49:00.944Z,100214.25
2023-04-18T20:51:28.410Z,100215.84
2023-04-18T20:53:55.942Z,100219.19
2023-04-18T20:56:23.336Z,100207.25
2023-04-18T20:58:50.892Z,100220.59
2023-04-18T21:01:19.732Z,100219.63
2023-04-18T21:03:47.289Z,100225.06
2023-04-18T21:06:16.616Z,100223.44
2023-04-18T21:08:43.997Z,100229.38
2023-04-18T21:11:11.310Z,100229.06
2023-04-18T21:13:38.656Z,100228.13
2023-04-18T21:16:08.001Z,100231.00
2023-04-18T21:18:36.914Z,100236.25
2023-04-18T21:21:04.530Z,100237.34
2023-04-18T21:23:31.791Z,100229.66
2023-04-18T21:25:59.293Z,100236.16
2023-04-18T21:28:26.623Z,100236.97
2023-04-18T21:30:53.992Z,100239.81
2023-04-18T21:33:21.366Z,100237.81
2023-04-18T21:35:50.109Z,100240.66
2023-04-18T21:38:17.627Z,100241.47
2023-04-18T21:40:45.095Z,100250.25
2023-04-18T21:43:12.398Z,100244.06
2023-04-18T21:45:39.738Z,100249.31
2023-04-18T21:48:09.981Z,100243.25
2023-04-18T21:50:37.450Z,100241.63
2023-04-18T21:53:06.321Z,100242.72
2023-04-18T21:55:33.585Z,100244.63
2023-04-18T21:58:01.182Z,100245.84
2023-04-18T22:00:28.536Z,100240.03
2023-04-18T22:02:56.163Z,100245.97
2023-04-18T22:05:23.508Z,100247.72
2023-04-18T22:07:57.958Z,100244.22
2023-04-18T22:10:27.995Z,100246.53
2023-04-18T22:12:56.045Z,100237.22
2023-04-18T22:15:24.597Z,100239.34
2023-04-18T22:17:51.930Z,100242.31
2023-04-18T22:20:19.313Z,100239.63
2023-04-18T22:22:46.728Z,100241.88
2023-04-18T22:25:14.002Z,100238.38
2023-04-18T22:27:43.289Z,100240.94
2023-04-18T22:30:11.962Z,100239.31
2023-04-18T22:32:39.574Z,100249.06
2023-04-18T22:35:08.393Z,100231.81
2023-04-18T22:37:35.893Z,100235.47
2023-04-18T22:40:05.272Z,100232.09
2023-04-18T22:42:33.701Z,100229.25
2023-04-18T22:45:02.631Z,100236.00
2023-04-18T22:47:31.915Z,100228.44
2023-04-18T22:49:59.395Z,100226.69
2023-04-18T22:52:26.769Z,100219.81
2023-04-18T22:54:54.343Z,100219.94
2023-04-18T22:57:22.194Z,100215.41
2023-04-18T22:59:49.470Z,100219.72
2023-04-18T23:02:18.292Z,100231.03
2023-04-18T23:04:46.420Z,100212.88
2023-04-18T23:07:13.918Z,100217.81
2023-04-18T23:09:41.678Z,100225.50
2023-04-18T23:12:09.081Z,100213.69
2023-04-18T23:14:36.520Z,100222.13
2023-04-18T23:17:03.868Z,100215.56
2023-04-18T23:19:32.984Z,100213.94
2023-04-18T23:22:00.372Z,100215.03
2023-04-18T23:24:27.809Z,100222.84
2023-04-18T23:26:55.065Z,100221.22
2023-04-18T23:29:22.435Z,100224.34
2023-04-18T23:31:49.822Z,100216.94
2023-04-18T23:34:17.474Z,100214.00
2023-04-18T23:36:46.730Z,100211.44
2023-04-18T23:39:14.156Z,100215.59
2023-04-18T23:41:41.543Z,100212.63
2023-04-18T23:44:09.111Z,100218.56
2023-04-18T23:46:36.764Z,100208.56
2023-04-18T23:49:04.300Z,100215.59
2023-04-18T23:51:31.664Z,100209.97
2023-04-18T23:54:00.542Z,100217.78
2023-04-18T23:56:28.264Z,100210.22
2023-04-18T23:58:55.567Z,100211.84
